Boone Grove, Indiana
Current Conditions -  °F | °C
As of 1:56 PM on Saturday 20 Dec 2014 (Local Time) from KVPZ Reporting Station
Overcast Overcast  
Wind Chill: 26°   Ceiling: 2000
Heat Index: 32°   Visibility: 10mi
Dew Point: 24°   Wind: 7mph
Humidity: 73%   Direction: 210°SSW
Pressure: 30.25"   Gusts: NA
Location:  41.35°N, 87.13°W
Report Text: KVPZ 201956Z AUTO 21006KT 10SM BKN020 OVC070 00/M04 A3025 RMK AO2 SLP252 T00001044 TSNO
Loading
Personal Weather Stations






























Interactive Weather Map New forecast layout! Learn more

10-Day Weather Forecast

Advertisements
Track Severe Weather on mobile